Terminal Aerodrome Forecast
Issued by NWS

Home | Current Version | Previous Version | Text Only | Print | Product List | Glossary On
Versions: 1 2 3 4 5 6 7 8 9 10 11 12 13 14 15 16
000
FTUS46 KSGX 290500
TAFSNA
TAF
KSNA 290528Z 2906/3006 05003KT P6SM SKC
     FM292100 26006KT P6SM SCT020
     FM300200 14005KT P6SM BKN022=

USA.gov is the U.S. government's official web portal to all federal, state and local government web resources and services.